createdAt,value
2023-03-15T00:00:23.915Z,1005.82
2023-03-15T00:01:23.882Z,1005.83
2023-03-15T00:02:23.932Z,1005.86
2023-03-15T00:03:23.239Z,1005.92
2023-03-15T00:04:23.182Z,1005.92
2023-03-15T00:05:23.861Z,1006.02
2023-03-15T00:06:23.823Z,1006.00
2023-03-15T00:07:25.118Z,1006.04
2023-03-15T00:08:23.821Z,1006.08
2023-03-15T00:09:24.082Z,1006.10
2023-03-15T00:10:25.042Z,1006.11
2023-03-15T00:11:24.070Z,1006.13
2023-03-15T00:12:23.786Z,1006.16
2023-03-15T00:13:23.085Z,1006.19
2023-03-15T00:14:23.764Z,1006.20
2023-03-15T00:15:23.060Z,1006.22
2023-03-15T00:16:23.061Z,1006.25
2023-03-15T00:17:23.723Z,1006.24
2023-03-15T00:18:23.715Z,1006.23
2023-03-15T00:19:23.706Z,1006.21
2023-03-15T00:20:23.030Z,1006.22
2023-03-15T00:21:23.685Z,1006.26
2023-03-15T00:22:22.991Z,1006.27
2023-03-15T00:23:23.675Z,1006.21
2023-03-15T00:24:25.184Z,1006.31
2023-03-15T00:25:23.643Z,1006.27
2023-03-15T00:26:23.614Z,1006.28
2023-03-15T00:27:23.625Z,1006.28
2023-03-15T00:28:22.933Z,1006.28
2023-03-15T00:29:23.594Z,1006.25
2023-03-15T00:30:23.585Z,1006.31
2023-03-15T00:31:23.644Z,1006.28
2023-03-15T00:32:23.608Z,1006.30
2023-03-15T00:33:22.866Z,1006.36
2023-03-15T00:34:23.556Z,1006.33
2023-03-15T00:35:23.557Z,1006.27
2023-03-15T00:36:22.885Z,1006.30
2023-03-15T00:37:23.518Z,1006.28
2023-03-15T00:38:23.507Z,1006.29
2023-03-15T00:39:24.756Z,1006.27
2023-03-15T00:40:23.491Z,1006.27
2023-03-15T00:41:23.465Z,1006.32
2023-03-15T00:42:23.466Z,1006.27
2023-03-15T00:43:22.773Z,1006.27
2023-03-15T00:44:22.747Z,1006.19
2023-03-15T00:45:22.736Z,1006.18
2023-03-15T00:46:23.468Z,1006.15
2023-03-15T00:47:23.421Z,1006.19
2023-03-15T00:48:23.400Z,1006.22
2023-03-15T00:49:23.389Z,1006.24
2023-03-15T00:50:23.522Z,1006.24
2023-03-15T00:51:23.664Z,1006.28
2023-03-15T00:52:23.522Z,1006.31
2023-03-15T00:53:23.348Z,1006.32
2023-03-15T00:54:23.340Z,1006.36
2023-03-15T00:55:22.649Z,1006.37
2023-03-15T00:56:23.309Z,1006.35
2023-03-15T00:57:22.631Z,1006.36
2023-03-15T00:58:24.265Z,1006.38
2023-03-15T00:59:23.283Z,1006.37
2023-03-15T01:00:23.319Z,1006.45
2023-03-15T01:01:22.615Z,1006.41
2023-03-15T01:02:23.253Z,1006.39
2023-03-15T01:03:23.250Z,1006.40
2023-03-15T01:04:22.567Z,1006.40
2023-03-15T01:05:23.416Z,1006.38
2023-03-15T01:06:24.488Z,1006.36
2023-03-15T01:07:23.203Z,1006.38
2023-03-15T01:08:22.520Z,1006.41
2023-03-15T01:09:22.520Z,1006.45
2023-03-15T01:10:23.440Z,1006.45
2023-03-15T01:11:22.523Z,1006.47
2023-03-15T01:12:23.402Z,1006.42
2023-03-15T01:13:23.380Z,1006.45
2023-03-15T01:14:23.366Z,1006.41
2023-03-15T01:15:23.114Z,1006.44
2023-03-15T01:16:23.136Z,1006.44
2023-03-15T01:17:23.092Z,1006.50
2023-03-15T01:18:23.091Z,1006.49
2023-03-15T01:19:23.073Z,1006.51
2023-03-15T01:20:23.074Z,1006.48
2023-03-15T01:21:23.031Z,1006.45
2023-03-15T01:22:23.050Z,1006.48
2023-03-15T01:23:23.312Z,1006.51
2023-03-15T01:24:23.261Z,1006.49
2023-03-15T01:25:23.004Z,1006.54
2023-03-15T01:26:23.298Z,1006.59
2023-03-15T01:27:23.229Z,1006.58
2023-03-15T01:28:22.972Z,1006.58
2023-03-15T01:29:23.232Z,1006.58
2023-03-15T01:30:23.208Z,1006.62
2023-03-15T01:31:23.358Z,1006.59
2023-03-15T01:32:23.031Z,1006.64
2023-03-15T01:33:22.929Z,1006.63
2023-03-15T01:34:22.937Z,1006.62
2023-03-15T01:35:23.158Z,1006.60
2023-03-15T01:36:23.185Z,1006.67
2023-03-15T01:37:23.139Z,1006.68
2023-03-15T01:38:22.873Z,1006.67
2023-03-15T01:39:22.865Z,1006.69
2023-03-15T01:40:23.122Z,1006.65
2023-03-15T01:41:23.106Z,1006.63
2023-03-15T01:42:22.826Z,1006.66
2023-03-15T01:43:23.085Z,1006.71
2023-03-15T01:44:22.125Z,1006.66
2023-03-15T01:45:23.054Z,1006.69
2023-03-15T01:46:22.817Z,1006.71
2023-03-15T01:47:22.774Z,1006.71
2023-03-15T01:48:22.763Z,1006.71
2023-03-15T01:49:22.782Z,1006.74
2023-03-15T01:50:22.736Z,1006.72
2023-03-15T01:51:22.718Z,1006.74
2023-03-15T01:52:22.976Z,1006.77
2023-03-15T01:53:22.967Z,1006.79
2023-03-15T01:54:22.974Z,1006.82
2023-03-15T01:55:22.688Z,1006.84
2023-03-15T01:56:22.994Z,1006.78
2023-03-15T01:57:22.670Z,1006.85
2023-03-15T01:58:22.668Z,1006.84
2023-03-15T01:59:22.896Z,1006.84
2023-03-15T02:00:22.874Z,1006.85
2023-03-15T02:01:22.611Z,1006.89
2023-03-15T02:02:22.740Z,1006.92
2023-03-15T02:03:23.856Z,1006.93
2023-03-15T02:04:22.586Z,1006.96
2023-03-15T02:05:22.821Z,1006.94
2023-03-15T02:06:22.549Z,1006.89
2023-03-15T02:07:22.818Z,1006.96
2023-03-15T02:08:22.565Z,1006.97
2023-03-15T02:09:22.811Z,1006.98
2023-03-15T02:10:22.521Z,1007.04
2023-03-15T02:11:22.498Z,1007.08
2023-03-15T02:12:22.752Z,1007.03
2023-03-15T02:13:22.787Z,1007.03
2023-03-15T02:14:22.502Z,1007.04
2023-03-15T02:15:22.729Z,1007.07
2023-03-15T02:16:22.489Z,1007.05
2023-03-15T02:17:22.695Z,1007.04
2023-03-15T02:18:22.444Z,1007.13
2023-03-15T02:19:22.435Z,1007.06
2023-03-15T02:20:21.751Z,1007.08
2023-03-15T02:21:22.673Z,1007.03
2023-03-15T02:22:22.636Z,1007.06
2023-03-15T02:23:22.640Z,1007.06
2023-03-15T02:24:22.386Z,1007.12
2023-03-15T02:25:22.654Z,1007.13
2023-03-15T02:26:22.641Z,1007.16
2023-03-15T02:27:22.651Z,1007.17
2023-03-15T02:28:22.598Z,1007.21
2023-03-15T02:29:22.600Z,1007.14
2023-03-15T02:30:22.593Z,1007.19
2023-03-15T02:31:22.662Z,1007.22
2023-03-15T02:32:22.376Z,1007.18
2023-03-15T02:33:22.285Z,1007.18
2023-03-15T02:34:22.534Z,1007.16
2023-03-15T02:35:22.529Z,1007.19
2023-03-15T02:36:22.236Z,1007.21
2023-03-15T02:37:22.241Z,1007.21
2023-03-15T02:38:22.481Z,1007.26
2023-03-15T02:39:22.218Z,1007.30
2023-03-15T02:40:22.489Z,1007.34
2023-03-15T02:41:22.475Z,1007.34
2023-03-15T02:42:22.186Z,1007.42
2023-03-15T02:43:22.454Z,1007.43
2023-03-15T02:44:22.163Z,1007.48
2023-03-15T02:45:22.446Z,1007.53
2023-03-15T02:46:23.484Z,1007.52
2023-03-15T02:47:22.377Z,1007.54
2023-03-15T02:48:21.447Z,1007.48
2023-03-15T02:49:22.110Z,1007.48
2023-03-15T02:50:22.109Z,1007.49
2023-03-15T02:51:22.358Z,1007.47
2023-03-15T02:52:22.127Z,1007.52
2023-03-15T02:53:21.395Z,1007.56
2023-03-15T02:54:21.382Z,1007.56
2023-03-15T02:55:22.049Z,1007.54
2023-03-15T02:56:21.389Z,1007.56
2023-03-15T02:57:22.310Z,1007.61
2023-03-15T02:58:22.010Z,1007.63
2023-03-15T02:59:22.014Z,1007.58
2023-03-15T03:00:21.997Z,1007.65
2023-03-15T03:01:22.290Z,1007.66
2023-03-15T03:02:22.001Z,1007.62
2023-03-15T03:03:21.975Z,1007.65
2023-03-15T03:04:22.231Z,1007.65
2023-03-15T03:05:21.960Z,1007.71
2023-03-15T03:06:21.924Z,1007.68
2023-03-15T03:07:21.271Z,1007.72
2023-03-15T03:08:21.911Z,1007.76
2023-03-15T03:09:21.264Z,1007.74
2023-03-15T03:10:21.893Z,1007.70
2023-03-15T03:11:21.855Z,1007.73
2023-03-15T03:12:21.216Z,1007.75
2023-03-15T03:13:21.853Z,1007.74
2023-03-15T03:14:21.846Z,1007.75
2023-03-15T03:15:21.841Z,1007.80
2023-03-15T03:16:21.847Z,1007.83
2023-03-15T03:17:21.809Z,1007.86
2023-03-15T03:18:21.134Z,1007.91
2023-03-15T03:19:21.798Z,1007.91
2023-03-15T03:20:21.784Z,1007.91
2023-03-15T03:21:21.742Z,1007.95
2023-03-15T03:22:21.751Z,1008.00
2023-03-15T03:23:21.142Z,1007.99
2023-03-15T03:24:21.050Z,1008.05
2023-03-15T03:25:21.741Z,1008.10
2023-03-15T03:26:21.690Z,1008.08
2023-03-15T03:27:21.712Z,1008.13
2023-03-15T03:28:21.709Z,1008.11
2023-03-15T03:29:21.689Z,1008.19
2023-03-15T03:30:20.999Z,1008.11
2023-03-15T03:31:21.693Z,1008.13
2023-03-15T03:32:21.673Z,1008.15
2023-03-15T03:33:21.638Z,1008.13
2023-03-15T03:34:20.954Z,1008.13
2023-03-15T03:35:20.948Z,1008.18
2023-03-15T03:36:21.600Z,1008.15
2023-03-15T03:37:20.954Z,1008.17
2023-03-15T03:38:21.579Z,1008.17
2023-03-15T03:39:21.833Z,1008.27
2023-03-15T03:40:21.559Z,1008.25
2023-03-15T03:41:20.889Z,1008.26
2023-03-15T03:42:21.520Z,1008.28
2023-03-15T03:43:21.523Z,1008.27
2023-03-15T03:44:20.832Z,1008.29
2023-03-15T03:45:21.508Z,1008.26
2023-03-15T03:46:21.516Z,1008.24
2023-03-15T03:47:20.813Z,1008.30
2023-03-15T03:48:21.469Z,1008.25
2023-03-15T03:49:21.473Z,1008.29
2023-03-15T03:50:21.459Z,1008.34
2023-03-15T03:51:20.749Z,1008.38
2023-03-15T03:52:21.410Z,1008.38
2023-03-15T03:53:20.876Z,1008.44
2023-03-15T03:54:21.425Z,1008.43
2023-03-15T03:55:21.396Z,1008.44
2023-03-15T03:56:21.394Z,1008.48
2023-03-15T03:57:21.367Z,1008.43
2023-03-15T03:58:21.373Z,1008.51
2023-03-15T03:59:20.703Z,1008.51
2023-03-15T04:00:21.363Z,1008.57
2023-03-15T04:01:20.653Z,1008.54
2023-03-15T04:02:21.401Z,1008.59
2023-03-15T04:03:21.313Z,1008.58
2023-03-15T04:04:21.344Z,1008.65
2023-03-15T04:05:20.624Z,1008.63
2023-03-15T04:06:20.624Z,1008.64
2023-03-15T04:07:20.631Z,1008.68
2023-03-15T04:08:20.583Z,1008.66
2023-03-15T04:09:20.632Z,1008.75
2023-03-15T04:10:21.242Z,1008.74
2023-03-15T04:11:20.572Z,1008.76
2023-03-15T04:12:21.246Z,1008.76
2023-03-15T04:13:21.204Z,1008.84
2023-03-15T04:14:21.198Z,1008.84
2023-03-15T04:15:21.183Z,1008.84
2023-03-15T04:16:20.608Z,1008.82
2023-03-15T04:17:20.560Z,1008.86
2023-03-15T04:18:21.027Z,1008.82
2023-03-15T04:19:20.534Z,1008.88
2023-03-15T04:20:21.166Z,1008.82
2023-03-15T04:21:21.144Z,1008.84
2023-03-15T04:22:20.903Z,1008.84
2023-03-15T04:23:21.104Z,1008.81
2023-03-15T04:24:20.524Z,1008.85
2023-03-15T04:25:21.091Z,1008.88
2023-03-15T04:26:21.074Z,1008.80
2023-03-15T04:27:21.034Z,1008.83
2023-03-15T04:28:21.056Z,1008.85
2023-03-15T04:29:21.045Z,1008.86
2023-03-15T04:30:21.040Z,1008.86
2023-03-15T04:31:21.055Z,1008.88
2023-03-15T04:32:21.047Z,1008.91
2023-03-15T04:33:21.001Z,1008.88
2023-03-15T04:34:20.311Z,1008.91
2023-03-15T04:35:20.980Z,1008.93
2023-03-15T04:36:20.983Z,1008.92
2023-03-15T04:37:20.297Z,1008.87
2023-03-15T04:38:20.361Z,1008.89
2023-03-15T04:39:20.253Z,1008.94
2023-03-15T04:40:20.257Z,1008.92
2023-03-15T04:41:20.919Z,1008.92
2023-03-15T04:42:20.885Z,1008.94
2023-03-15T04:43:20.895Z,1008.97
2023-03-15T04:44:20.885Z,1009.01
2023-03-15T04:45:20.208Z,1009.00
2023-03-15T04:46:20.224Z,1008.98
2023-03-15T04:47:20.846Z,1009.06
2023-03-15T04:48:20.167Z,1009.06
2023-03-15T04:49:20.843Z,1009.09
2023-03-15T04:50:20.829Z,1009.11
2023-03-15T04:51:20.818Z,1009.12
2023-03-15T04:52:20.150Z,1009.12
2023-03-15T04:53:20.803Z,1009.11
2023-03-15T04:54:20.105Z,1009.09
2023-03-15T04:55:20.090Z,1009.11
2023-03-15T04:56:20.325Z,1009.10
2023-03-15T04:57:25.679Z,1009.10
2023-03-15T04:58:24.653Z,1009.11
2023-03-15T04:59:23.681Z,1009.09
2023-03-15T05:00:20.723Z,1009.10
2023-03-15T05:01:20.705Z,1009.09
2023-03-15T05:02:20.745Z,1009.14
2023-03-15T05:03:19.999Z,1009.08
2023-03-15T05:04:20.678Z,1009.10
2023-03-15T05:05:19.999Z,1009.15
2023-03-15T05:06:20.657Z,1009.14
2023-03-15T05:07:20.629Z,1009.16
2023-03-15T05:08:20.632Z,1009.22
2023-03-15T05:09:20.619Z,1009.23
2023-03-15T05:10:20.608Z,1009.26
2023-03-15T05:11:20.599Z,1009.27
2023-03-15T05:12:20.582Z,1009.28
2023-03-15T05:13:20.588Z,1009.31
2023-03-15T05:14:20.560Z,1009.30
2023-03-15T05:15:20.845Z,1009.33
2023-03-15T05:16:20.554Z,1009.36
2023-03-15T05:17:20.523Z,1009.29
2023-03-15T05:18:20.534Z,1009.36
2023-03-15T05:19:19.877Z,1009.39
2023-03-15T05:20:19.813Z,1009.34
2023-03-15T05:21:19.826Z,1009.36
2023-03-15T05:22:19.841Z,1009.37
2023-03-15T05:23:19.781Z,1009.33
2023-03-15T05:24:20.451Z,1009.46
2023-03-15T05:25:20.465Z,1009.43
2023-03-15T05:26:19.760Z,1009.38
2023-03-15T05:27:19.765Z,1009.49
2023-03-15T05:28:19.766Z,1009.52
2023-03-15T05:29:20.403Z,1009.52
2023-03-15T05:30:20.393Z,1009.52
2023-03-15T05:31:20.435Z,1009.57
2023-03-15T05:32:19.714Z,1009.64
2023-03-15T05:33:20.382Z,1009.72
2023-03-15T05:34:20.372Z,1009.76
2023-03-15T05:35:20.446Z,1009.72
2023-03-15T05:36:20.343Z,1009.75
2023-03-15T05:37:20.313Z,1009.74
2023-03-15T05:38:20.313Z,1009.73
2023-03-15T05:39:19.651Z,1009.83
2023-03-15T05:40:19.612Z,1009.81
2023-03-15T05:41:19.640Z,1009.85
2023-03-15T05:42:20.244Z,1009.85
2023-03-15T05:43:19.613Z,1009.89
2023-03-15T05:44:19.553Z,1009.91
2023-03-15T05:45:20.238Z,1009.94
2023-03-15T05:46:20.239Z,1009.97
2023-03-15T05:47:20.205Z,1010.01
2023-03-15T05:48:20.212Z,1010.02
2023-03-15T05:49:19.503Z,1010.05
2023-03-15T05:50:19.498Z,1010.14
2023-03-15T05:51:20.173Z,1010.13
2023-03-15T05:52:20.145Z,1010.19
2023-03-15T05:53:20.157Z,1010.18
2023-03-15T05:54:19.469Z,1010.23
2023-03-15T05:55:20.138Z,1010.22
2023-03-15T05:56:20.113Z,1010.23
2023-03-15T05:57:19.461Z,1010.22
2023-03-15T05:58:20.101Z,1010.21
2023-03-15T05:59:20.086Z,1010.25
2023-03-15T06:00:20.102Z,1010.30
2023-03-15T06:01:19.392Z,1010.31
2023-03-15T06:02:19.400Z,1010.32
2023-03-15T06:03:19.388Z,1010.36
2023-03-15T06:04:19.423Z,1010.32
2023-03-15T06:05:20.032Z,1010.39
2023-03-15T06:06:20.003Z,1010.43
2023-03-15T06:07:19.338Z,1010.43
2023-03-15T06:08:19.996Z,1010.41
2023-03-15T06:09:19.982Z,1010.42
2023-03-15T06:10:19.963Z,1010.38
2023-03-15T06:11:19.273Z,1010.38
2023-03-15T06:12:19.927Z,1010.35
2023-03-15T06:13:19.289Z,1010.45
2023-03-15T06:14:19.264Z,1010.47
2023-03-15T06:15:20.011Z,1010.47
2023-03-15T06:16:19.985Z,1010.46
2023-03-15T06:17:19.877Z,1010.50
2023-03-15T06:18:19.213Z,1010.52
2023-03-15T06:19:19.195Z,1010.45
2023-03-15T06:20:19.206Z,1010.44
2023-03-15T06:21:19.862Z,1010.45
2023-03-15T06:22:19.814Z,1010.52
2023-03-15T06:23:19.823Z,1010.61
2023-03-15T06:24:19.124Z,1010.59
2023-03-15T06:25:19.131Z,1010.66
2023-03-15T06:26:19.137Z,1010.66
2023-03-15T06:27:19.770Z,1010.66
2023-03-15T06:28:19.774Z,1010.71
2023-03-15T06:29:19.763Z,1010.70
2023-03-15T06:30:19.115Z,1010.70
2023-03-15T06:31:19.168Z,1010.64
2023-03-15T06:32:19.080Z,1010.65
2023-03-15T06:33:19.714Z,1010.71
2023-03-15T06:34:19.704Z,1010.71
2023-03-15T06:35:19.700Z,1010.75
2023-03-15T06:36:19.005Z,1010.80
2023-03-15T06:37:29.148Z,1010.82
2023-03-15T06:38:21.907Z,1010.87
2023-03-15T06:39:19.688Z,1010.92
2023-03-15T06:40:19.649Z,1010.92
2023-03-15T06:41:18.941Z,1010.94
2023-03-15T06:42:18.946Z,1011.04
2023-03-15T06:43:18.946Z,1010.99
2023-03-15T06:44:19.598Z,1011.06
2023-03-15T06:45:19.594Z,1011.01
2023-03-15T06:46:19.590Z,1011.10
2023-03-15T06:47:18.917Z,1011.06
2023-03-15T06:48:18.870Z,1011.05
2023-03-15T06:49:18.873Z,1011.07
2023-03-15T06:50:19.557Z,1011.07
2023-03-15T06:51:19.543Z,1011.16
2023-03-15T06:52:19.518Z,1011.21
2023-03-15T06:53:18.810Z,1011.17
2023-03-15T06:54:19.502Z,1011.13
2023-03-15T06:55:19.488Z,1011.18
2023-03-15T06:56:18.818Z,1011.26
2023-03-15T06:57:19.466Z,1011.25
2023-03-15T06:58:19.461Z,1011.27
2023-03-15T06:59:18.758Z,1011.32
2023-03-15T07:00:19.434Z,1011.34
2023-03-15T07:01:18.840Z,1011.36
2023-03-15T07:02:19.449Z,1011.44
2023-03-15T07:03:19.422Z,1011.44
2023-03-15T07:04:19.446Z,1011.44
2023-03-15T07:05:19.399Z,1011.47
2023-03-15T07:06:18.697Z,1011.53
2023-03-15T07:07:19.344Z,1011.56
2023-03-15T07:08:19.347Z,1011.52
2023-03-15T07:09:19.336Z,1011.52
2023-03-15T07:10:19.337Z,1011.54
2023-03-15T07:11:18.636Z,1011.55
2023-03-15T07:12:18.624Z,1011.61
2023-03-15T07:13:18.644Z,1011.59
2023-03-15T07:14:19.295Z,1011.63
2023-03-15T07:15:19.278Z,1011.66
2023-03-15T07:16:19.360Z,1011.70
2023-03-15T07:17:19.237Z,1011.72
2023-03-15T07:18:18.547Z,1011.71
2023-03-15T07:19:19.249Z,1011.77
2023-03-15T07:20:19.229Z,1011.80
2023-03-15T07:21:19.209Z,1011.82
2023-03-15T07:22:19.179Z,1011.88
2023-03-15T07:23:18.500Z,1011.87
2023-03-15T07:24:18.521Z,1011.92
2023-03-15T07:25:19.170Z,1011.92
2023-03-15T07:26:19.162Z,1011.93
2023-03-15T07:27:19.608Z,1011.90
2023-03-15T07:28:18.441Z,1011.94
2023-03-15T07:29:19.124Z,1011.91
2023-03-15T07:30:19.117Z,1011.93
2023-03-15T07:31:19.119Z,1011.87
2023-03-15T07:32:19.120Z,1011.93
2023-03-15T07:33:19.201Z,1011.94
2023-03-15T07:34:18.374Z,1011.96
2023-03-15T07:35:19.095Z,1011.98
2023-03-15T07:36:18.375Z,1012.01
2023-03-15T07:37:19.031Z,1012.06
2023-03-15T07:38:18.379Z,1012.01
2023-03-15T07:39:19.051Z,1012.00
2023-03-15T07:40:18.345Z,1012.03
2023-03-15T07:41:18.999Z,1012.00
2023-03-15T07:42:18.313Z,1012.08
2023-03-15T07:43:18.972Z,1012.07
2023-03-15T07:44:18.965Z,1012.06
2023-03-15T07:45:18.239Z,1012.05
2023-03-15T07:46:18.433Z,1012.05
2023-03-15T07:47:18.269Z,1012.08
2023-03-15T07:48:18.911Z,1012.19
2023-03-15T07:49:18.911Z,1012.20
2023-03-15T07:50:18.909Z,1012.20
2023-03-15T07:51:18.185Z,1012.22
2023-03-15T07:52:18.853Z,1012.29
2023-03-15T07:53:18.859Z,1012.35
2023-03-15T07:54:18.863Z,1012.40
2023-03-15T07:55:18.876Z,1012.41
2023-03-15T07:56:19.788Z,1012.48
2023-03-15T07:57:18.805Z,1012.51
2023-03-15T07:58:20.289Z,1012.62
2023-03-15T07:59:18.801Z,1012.64
2023-03-15T08:00:18.802Z,1012.67
2023-03-15T08:01:18.785Z,1012.62
2023-03-15T08:02:18.773Z,1012.52
2023-03-15T08:03:18.102Z,1012.66
2023-03-15T08:04:18.061Z,1012.67
2023-03-15T08:05:18.740Z,1012.67
2023-03-15T08:06:18.726Z,1012.68
2023-03-15T08:07:18.062Z,1012.66
2023-03-15T08:08:18.697Z,1012.69
2023-03-15T08:09:18.686Z,1012.73
2023-03-15T08:10:18.707Z,1012.78
2023-03-15T08:11:18.671Z,1012.79
2023-03-15T08:12:18.646Z,1012.86
2023-03-15T08:13:18.665Z,1012.89
2023-03-15T08:14:18.636Z,1012.83
2023-03-15T08:15:17.930Z,1012.81
2023-03-15T08:16:18.662Z,1012.90
2023-03-15T08:17:18.580Z,1012.88
2023-03-15T08:18:18.589Z,1012.90
2023-03-15T08:19:17.888Z,1012.98
2023-03-15T08:20:18.568Z,1012.74
2023-03-15T08:21:18.562Z,1013.14
2023-03-15T08:22:18.544Z,1013.15
2023-03-15T08:23:17.875Z,1013.15
2023-03-15T08:24:18.543Z,1013.21
2023-03-15T08:25:18.520Z,1013.26
2023-03-15T08:26:18.513Z,1013.33
2023-03-15T08:27:18.482Z,1013.26
2023-03-15T08:28:18.492Z,1013.26
2023-03-15T08:29:17.830Z,1013.27
2023-03-15T08:30:18.481Z,1013.28
2023-03-15T08:31:18.490Z,1013.36
2023-03-15T08:32:18.534Z,1013.48
2023-03-15T08:33:18.413Z,1013.44
2023-03-15T08:34:17.746Z,1013.35
2023-03-15T08:35:18.418Z,1013.30
2023-03-15T08:36:18.448Z,1013.29
2023-03-15T08:37:18.394Z,1013.33
2023-03-15T08:38:18.355Z,1013.41
2023-03-15T08:39:18.365Z,1013.57
2023-03-15T08:40:18.356Z,1013.60
2023-03-15T08:41:18.369Z,1013.71
2023-03-15T08:42:17.647Z,1013.76
2023-03-15T08:43:17.710Z,1013.79
2023-03-15T08:44:18.312Z,1013.84
2023-03-15T08:45:18.312Z,1013.82
2023-03-15T08:46:18.346Z,1013.79
2023-03-15T08:47:18.280Z,1013.83
2023-03-15T08:48:18.247Z,1013.82
2023-03-15T08:49:18.256Z,1013.84
2023-03-15T08:50:18.256Z,1013.58
2023-03-15T08:51:18.227Z,1013.79
2023-03-15T08:52:18.257Z,1013.76
2023-03-15T08:53:18.193Z,1013.71
2023-03-15T08:54:18.196Z,1013.67
2023-03-15T08:55:18.207Z,1013.69
2023-03-15T08:56:17.500Z,1013.72
2023-03-15T08:57:18.168Z,1013.68
2023-03-15T08:58:18.138Z,1013.69
2023-03-15T08:59:25.546Z,1013.68
2023-03-15T09:00:19.877Z,1013.69
2023-03-15T09:01:17.438Z,1013.76
2023-03-15T09:02:17.532Z,1013.66
2023-03-15T09:03:18.079Z,1013.78
2023-03-15T09:04:18.170Z,1013.73
2023-03-15T09:05:18.088Z,1013.41
2023-03-15T09:06:18.079Z,1013.68
2023-03-15T09:07:18.059Z,1013.84
2023-03-15T09:08:18.029Z,1013.46
2023-03-15T09:09:18.031Z,1013.59
2023-03-15T09:10:17.353Z,1013.53
2023-03-15T09:11:18.022Z,1013.76
2023-03-15T09:12:17.328Z,1013.89
2023-03-15T09:13:17.971Z,1013.85
2023-03-15T09:14:17.312Z,1013.64
2023-03-15T09:15:17.960Z,1013.66
2023-03-15T09:16:17.984Z,1013.81
2023-03-15T09:17:17.945Z,1013.83
2023-03-15T09:18:18.722Z,1013.80
2023-03-15T09:19:17.242Z,1013.73
2023-03-15T09:20:17.913Z,1013.84
2023-03-15T09:21:17.228Z,1013.78
2023-03-15T09:22:29.208Z,1013.74
2023-03-15T09:23:19.661Z,1013.72
2023-03-15T09:24:18.114Z,1013.70
2023-03-15T09:25:17.176Z,1013.60
2023-03-15T09:26:17.858Z,1013.66
2023-03-15T09:27:17.859Z,1013.67
2023-03-15T09:28:17.812Z,1013.65
2023-03-15T09:29:17.835Z,1013.65
2023-03-15T09:30:17.183Z,1013.51
2023-03-15T09:31:17.862Z,1013.61
2023-03-15T09:32:17.122Z,1013.57
2023-03-15T09:33:17.775Z,1013.61
2023-03-15T09:34:17.772Z,1013.57
2023-03-15T09:35:17.754Z,1013.59
2023-03-15T09:36:17.749Z,1013.63
2023-03-15T09:37:17.735Z,1013.63
2023-03-15T09:38:17.074Z,1013.63
2023-03-15T09:39:17.716Z,1013.56
2023-03-15T09:40:17.705Z,1013.55
2023-03-15T09:41:17.698Z,1013.56
2023-03-15T09:42:17.700Z,1013.61
2023-03-15T09:43:17.650Z,1013.52
2023-03-15T09:44:17.000Z,1013.55
2023-03-15T09:45:16.947Z,1013.52
2023-03-15T09:46:17.681Z,1013.51
2023-03-15T09:47:17.628Z,1013.55
2023-03-15T09:48:17.641Z,1013.52
2023-03-15T09:49:16.941Z,1013.54
2023-03-15T09:50:17.607Z,1013.55
2023-03-15T09:51:17.584Z,1013.50
2023-03-15T09:52:16.905Z,1013.48
2023-03-15T09:53:16.909Z,1013.54
2023-03-15T09:54:19.182Z,1013.60
2023-03-15T09:55:17.543Z,1013.60
2023-03-15T09:56:17.533Z,1013.62
2023-03-15T09:57:17.523Z,1013.61
2023-03-15T09:58:17.500Z,1013.61
2023-03-15T09:59:17.502Z,1013.65
2023-03-15T10:00:17.484Z,1013.72
2023-03-15T10:01:17.524Z,1013.70
2023-03-15T10:02:17.464Z,1013.70
2023-03-15T10:03:17.533Z,1013.64
2023-03-15T10:04:16.773Z,1013.66
2023-03-15T10:05:17.434Z,1013.71
2023-03-15T10:06:16.748Z,1013.64
2023-03-15T10:07:17.418Z,1013.65
2023-03-15T10:08:17.395Z,1013.70
2023-03-15T10:09:17.424Z,1013.68
2023-03-15T10:10:17.434Z,1013.70
2023-03-15T10:11:17.377Z,1013.68
2023-03-15T10:12:17.362Z,1013.59
2023-03-15T10:13:16.708Z,1013.65
2023-03-15T10:14:17.349Z,1013.65
2023-03-15T10:15:17.328Z,1013.65
2023-03-15T10:16:17.391Z,1013.63
2023-03-15T10:17:17.310Z,1013.57
2023-03-15T10:18:17.287Z,1013.61
2023-03-15T10:19:16.641Z,1013.59
2023-03-15T10:20:17.540Z,1013.61
2023-03-15T10:21:17.512Z,1013.63
2023-03-15T10:22:17.514Z,1013.61
2023-03-15T10:23:17.580Z,1013.54
2023-03-15T10:24:17.235Z,1013.57
2023-03-15T10:25:17.498Z,1013.61
2023-03-15T10:26:17.213Z,1013.65
2023-03-15T10:27:17.493Z,1013.60
2023-03-15T10:28:17.487Z,1013.62
2023-03-15T10:29:17.472Z,1013.67
2023-03-15T10:30:17.171Z,1013.70
2023-03-15T10:31:22.217Z,1013.71
2023-03-15T10:32:17.455Z,1013.69
2023-03-15T10:33:17.111Z,1013.67
2023-03-15T10:34:17.139Z,1013.67
2023-03-15T10:35:17.108Z,1013.69
2023-03-15T10:36:17.164Z,1013.77
2023-03-15T10:37:17.371Z,1013.71
2023-03-15T10:38:17.064Z,1013.72
2023-03-15T10:39:17.351Z,1013.74
2023-03-15T10:40:17.081Z,1013.76
2023-03-15T10:41:23.450Z,1013.75
2023-03-15T10:42:18.821Z,1013.79
2023-03-15T10:43:17.000Z,1013.73
2023-03-15T10:44:17.273Z,1013.72
2023-03-15T10:45:17.295Z,1013.66
2023-03-15T10:46:17.282Z,1013.64
2023-03-15T10:47:23.528Z,1013.66
2023-03-15T10:48:18.331Z,1013.61
2023-03-15T10:49:17.243Z,1013.64
2023-03-15T10:50:17.213Z,1013.67
2023-03-15T10:51:17.202Z,1013.68
2023-03-15T10:52:17.221Z,1013.76
2023-03-15T10:53:17.220Z,1013.82
2023-03-15T10:54:17.162Z,1013.78
2023-03-15T10:55:16.905Z,1013.83
2023-03-15T10:56:17.172Z,1013.83
2023-03-15T10:57:16.863Z,1013.84
2023-03-15T10:58:17.139Z,1013.80
2023-03-15T10:59:17.127Z,1013.84
2023-03-15T11:00:16.832Z,1013.81
2023-03-15T11:01:16.184Z,1013.83
2023-03-15T11:02:16.830Z,1013.85
2023-03-15T11:03:16.851Z,1013.87
2023-03-15T11:04:17.072Z,1013.84
2023-03-15T11:05:17.099Z,1013.84
2023-03-15T11:06:17.047Z,1013.83
2023-03-15T11:07:17.031Z,1013.87
2023-03-15T11:08:17.009Z,1013.89
2023-03-15T11:09:17.030Z,1013.95
2023-03-15T11:10:16.725Z,1013.85
2023-03-15T11:11:17.014Z,1013.86
2023-03-15T11:12:18.278Z,1013.85
2023-03-15T11:13:16.706Z,1013.85
2023-03-15T11:14:16.985Z,1013.90
2023-03-15T11:15:16.989Z,1013.90
2023-03-15T11:16:16.953Z,1013.94
2023-03-15T11:17:16.974Z,1013.96
2023-03-15T11:18:16.888Z,1013.91
2023-03-15T11:19:16.646Z,1014.00
2023-03-15T11:20:16.644Z,1013.95
2023-03-15T11:21:16.600Z,1013.97
2023-03-15T11:22:16.900Z,1013.97
2023-03-15T11:23:17.829Z,1014.02
2023-03-15T11:24:16.585Z,1014.01
2023-03-15T11:25:16.841Z,1013.98
2023-03-15T11:26:29.468Z,1013.98
2023-03-15T11:27:17.539Z,1013.97
2023-03-15T11:28:17.831Z,1013.97
2023-03-15T11:29:16.812Z,1013.97
2023-03-15T11:30:16.520Z,1013.93
2023-03-15T11:31:16.555Z,1013.99
2023-03-15T11:32:16.480Z,1014.01
2023-03-15T11:33:17.730Z,1014.03
2023-03-15T11:34:16.471Z,1013.99
2023-03-15T11:35:16.451Z,1014.01
2023-03-15T11:36:16.442Z,1014.05
2023-03-15T11:37:16.424Z,1014.10
2023-03-15T11:38:16.064Z,1014.11
2023-03-15T11:39:16.396Z,1014.17
2023-03-15T11:40:17.266Z,1014.16
2023-03-15T11:41:15.746Z,1014.19
2023-03-15T11:42:16.385Z,1014.20
2023-03-15T11:43:15.726Z,1014.23
2023-03-15T11:44:16.339Z,1014.22
2023-03-15T11:45:15.690Z,1014.21
2023-03-15T11:46:16.337Z,1014.19
2023-03-15T11:47:16.335Z,1014.28
2023-03-15T11:48:16.315Z,1014.29
2023-03-15T11:49:16.279Z,1014.29
2023-03-15T11:50:15.615Z,1014.28
2023-03-15T11:51:16.367Z,1014.31
2023-03-15T11:52:16.269Z,1014.24
2023-03-15T11:53:16.272Z,1014.27
2023-03-15T11:54:16.242Z,1014.32
2023-03-15T11:55:16.240Z,1014.36
2023-03-15T11:56:16.219Z,1014.29
2023-03-15T11:57:15.559Z,1014.33
2023-03-15T11:58:16.200Z,1014.25
2023-03-15T11:59:16.178Z,1014.30
2023-03-15T12:00:16.301Z,1014.29
2023-03-15T12:01:15.488Z,1014.37
2023-03-15T12:02:16.189Z,1014.31
2023-03-15T12:03:16.165Z,1014.30
2023-03-15T12:04:16.124Z,1014.31
2023-03-15T12:05:18.360Z,1014.31